Time;durP1;ratioP1;P1;durP2;ratioP2;P2;SDS_P1;SDS_P2;PMS_P1;PMS_P2;Temp;Humidity;BMP_temperature;BMP_pressure;BME280_temperature;BME280_humidity;BME280_pressure;Samples;Min_cycle;Max_cycle;Signal;HPM_P1;HPM_P2
2021/06/30 00:00:58;;;;;;;0.60;0.40;;;16.60;99.80;;;;;;4903627;29;20563;-86
2021/06/30 00:03:31;;;;;;;0.60;0.40;;;16.60;99.80;;;;;;4918079;29;20484;-86
2021/06/30 00:06:04;;;;;;;0.60;0.40;;;16.60;99.80;;;;;;4909933;29;20496;-85
2021/06/30 00:08:34;;;;;;;0.60;0.40;;;16.60;99.80;;;;;;4909665;29;20511;-84
2021/06/30 00:11:07;;;;;;;0.60;0.50;;;16.60;99.80;;;;;;4903250;29;20527;-84
2021/06/30 00:13:35;;;;;;;0.60;0.47;;;16.50;99.80;;;;;;4903962;29;20487;-85
2021/06/30 00:16:04;;;;;;;0.60;0.40;;;16.50;99.80;;;;;;4906497;29;20480;-85
2021/06/30 00:18:32;;;;;;;0.60;0.50;;;16.40;99.80;;;;;;4909919;29;20556;-86
2021/06/30 00:21:00;;;;;;;0.60;0.40;;;16.50;99.80;;;;;;4923361;29;20503;-88
2021/06/30 00:23:35;;;;;;;0.60;0.40;;;16.50;99.80;;;;;;4919278;28;20558;-86
2021/06/30 00:26:03;;;;;;;0.60;0.40;;;16.50;99.80;;;;;;4921207;29;20504;-86
2021/06/30 00:28:31;;;;;;;0.60;0.40;;;16.50;99.80;;;;;;4919966;28;20511;-86
2021/06/30 00:31:04;;;;;;;0.60;0.50;;;16.50;99.80;;;;;;4924882;29;20515;-86
2021/06/30 00:33:37;;;;;;;0.60;0.50;;;16.50;99.80;;;;;;4929590;29;20502;-86
2021/06/30 00:36:05;;;;;;;0.60;0.50;;;16.50;99.80;;;;;;4926125;29;20521;-86
2021/06/30 00:38:39;;;;;;;0.60;0.40;;;16.50;99.80;;;;;;4927657;29;20882;-85
2021/06/30 00:41:12;;;;;;;0.60;0.40;;;16.40;99.80;;;;;;4943993;28;21035;-85
2021/06/30 00:43:45;;;;;;;0.63;0.50;;;16.40;99.80;;;;;;4940724;28;20530;-85
2021/06/30 00:46:13;;;;;;;0.60;0.40;;;16.40;99.80;;;;;;4947825;28;20582;-84
2021/06/30 00:48:46;;;;;;;0.60;0.50;;;16.30;99.80;;;;;;4950728;28;20506;-84
2021/06/30 00:51:19;;;;;;;0.60;0.50;;;16.30;99.80;;;;;;4944365;28;20473;-84
2021/06/30 00:53:48;;;;;;;0.60;0.40;;;16.20;99.80;;;;;;4947103;28;20469;-85
2021/06/30 00:56:25;;;;;;;0.60;0.40;;;16.20;99.80;;;;;;4942103;28;20611;-84
2021/06/30 00:59:00;;;;;;;0.60;0.40;;;16.20;99.80;;;;;;4940722;28;20516;-85
2021/06/30 01:01:32;;;;;;;0.60;0.40;;;16.20;99.80;;;;;;4944841;28;20478;-84
2021/06/30 01:04:05;;;;;;;0.60;0.40;;;16.30;99.80;;;;;;4949800;28;20566;-85
2021/06/30 01:06:38;;;;;;;0.60;0.40;;;16.30;99.80;;;;;;4949950;28;20481;-85
2021/06/30 01:09:13;;;;;;;0.60;0.40;;;16.30;99.80;;;;;;4951521;28;20478;-84
2021/06/30 01:11:46;;;;;;;0.60;0.40;;;16.30;99.80;;;;;;4952050;28;20558;-84
2021/06/30 01:14:25;;;;;;;0.60;0.40;;;16.40;99.80;;;;;;4945803;28;21017;-88
2021/06/30 01:16:59;;;;;;;0.60;0.40;;;16.30;99.80;;;;;;4947072;28;20467;-88
2021/06/30 01:19:28;;;;;;;0.60;0.47;;;16.20;99.80;;;;;;4949198;28;20474;-88
2021/06/30 01:21:57;;;;;;;0.60;0.50;;;16.20;99.80;;;;;;4930837;28;20487;-89
2021/06/30 01:24:27;;;;;;;0.60;0.50;;;16.10;99.80;;;;;;4917754;29;21083;-89
2021/06/30 01:27:00;;;;;;;0.60;0.40;;;16.10;99.80;;;;;;4923405;29;20557;-89
2021/06/30 01:29:27;;;;;;;0.60;0.40;;;16.00;99.80;;;;;;4922212;28;20479;-89
2021/06/30 01:31:56;;;;;;;0.60;0.40;;;16.00;99.80;;;;;;4916223;29;20824;-89
2021/06/30 01:34:28;;;;;;;0.60;0.50;;;15.90;99.80;;;;;;4923073;29;20497;-89
2021/06/30 01:37:01;;;;;;;0.60;0.40;;;15.80;99.80;;;;;;4912424;29;21125;-88
2021/06/30 01:39:36;;;;;;;0.70;0.50;;;15.80;99.80;;;;;;4917001;28;20915;-89
2021/06/30 01:42:09;;;;;;;0.60;0.40;;;15.80;99.80;;;;;;4920451;29;21061;-90
2021/06/30 01:44:42;;;;;;;0.70;0.50;;;15.80;99.80;;;;;;4919025;29;20600;-88
2021/06/30 01:47:10;;;;;;;0.60;0.40;;;15.70;99.80;;;;;;4918174;29;20486;-89
2021/06/30 01:49:43;;;;;;;0.60;0.40;;;15.70;99.80;;;;;;4931391;28;20469;-89
2021/06/30 01:52:16;;;;;;;0.60;0.47;;;15.70;99.80;;;;;;4928982;29;20489;-88
2021/06/30 01:54:46;;;;;;;0.60;0.40;;;15.70;99.80;;;;;;4923712;29;20490;-89
2021/06/30 01:57:18;;;;;;;0.60;0.50;;;15.60;99.80;;;;;;4923358;29;21069;-89
2021/06/30 01:59:51;;;;;;;0.60;0.40;;;15.60;99.80;;;;;;4904281;29;20540;-89
2021/06/30 02:02:19;;;;;;;0.60;0.40;;;15.60;99.80;;;;;;4910081;29;20567;-89
2021/06/30 02:04:59;;;;;;;0.60;0.50;;;15.50;99.80;;;;;;4928101;29;20502;-88
2021/06/30 02:07:27;;;;;;;0.70;0.50;;;15.50;99.80;;;;;;4933688;29;20517;-89
2021/06/30 02:10:02;;;;;;;0.60;0.40;;;15.50;99.80;;;;;;4934441;29;20458;-89
2021/06/30 02:12:35;;;;;;;0.60;0.50;;;15.60;99.80;;;;;;4929005;29;20541;-89
2021/06/30 02:15:11;;;;;;;0.60;0.40;;;15.60;99.80;;;;;;4935572;29;20542;-89
2021/06/30 02:17:39;;;;;;;0.60;0.50;;;15.70;99.80;;;;;;4927389;29;20525;-89
2021/06/30 02:20:13;;;;;;;0.70;0.50;;;15.70;99.80;;;;;;4932767;29;21008;-89
2021/06/30 02:22:47;;;;;;;0.60;0.40;;;15.80;99.80;;;;;;4902186;29;20482;-84
2021/06/30 02:25:25;;;;;;;0.60;0.40;;;15.80;99.80;;;;;;4922156;29;20514;-85
2021/06/30 02:27:58;;;;;;;0.60;0.40;;;15.80;99.80;;;;;;4925688;29;20474;-84
2021/06/30 02:30:32;;;;;;;0.60;0.40;;;15.80;99.80;;;;;;4928732;29;20550;-84
2021/06/30 02:33:06;;;;;;;0.60;0.47;;;;;;;;;;4927093;29;21501;-84
2021/06/30 02:35:41;;;;;;;0.60;0.50;;;15.90;99.80;;;;;;4926888;29;20927;-84
2021/06/30 02:38:14;;;;;;;0.60;0.50;;;15.90;99.80;;;;;;4921888;29;20557;-84
2021/06/30 02:40:49;;;;;;;0.60;0.43;;;15.80;99.80;;;;;;4924159;29;20541;-84
2021/06/30 02:43:22;;;;;;;0.60;0.40;;;15.80;99.80;;;;;;4920505;29;20573;-85
2021/06/30 02:45:55;;;;;;;0.60;0.40;;;15.80;99.80;;;;;;4926391;29;20481;-84
2021/06/30 02:48:28;;;;;;;0.60;0.40;;;15.90;99.80;;;;;;4931935;29;20470;-85
2021/06/30 02:51:01;;;;;;;0.60;0.40;;;15.90;99.80;;;;;;4933430;29;20859;-84
2021/06/30 02:53:34;;;;;;;0.60;0.50;;;15.90;99.80;;;;;;4929280;29;20976;-84
2021/06/30 02:56:08;;;;;;;0.60;0.50;;;15.90;99.80;;;;;;4917288;29;20516;-84
2021/06/30 02:58:36;;;;;;;0.60;0.50;;;15.90;99.80;;;;;;4926693;29;20521;-85
2021/06/30 03:01:09;;;;;;;0.77;0.70;;;15.90;99.80;;;;;;4904263;29;20545;-85
2021/06/30 03:03:41;;;;;;;0.60;0.40;;;16.00;99.80;;;;;;4925048;29;20479;-84
2021/06/30 03:06:14;;;;;;;0.60;0.50;;;16.00;99.80;;;;;;4924945;29;20475;-84
2021/06/30 03:08:49;;;;;;;0.60;0.40;;;15.90;99.80;;;;;;4923511;29;20473;-84
2021/06/30 03:11:24;;;;;;;0.60;0.50;;;15.90;99.80;;;;;;4928569;29;20514;-84
2021/06/30 03:13:56;;;;;;;0.60;0.50;;;15.90;99.80;;;;;;4923375;29;20500;-88
2021/06/30 03:16:29;;;;;;;0.60;0.47;;;15.80;99.80;;;;;;4927307;29;20918;-88
2021/06/30 03:19:02;;;;;;;0.60;0.40;;;15.80;99.80;;;;;;4927808;29;20501;-88
2021/06/30 03:21:35;;;;;;;0.60;0.40;;;15.80;99.80;;;;;;4926262;29;20523;-88
2021/06/30 03:24:03;;;;;;;0.60;0.47;;;15.80;99.80;;;;;;4928970;29;21100;-87
2021/06/30 03:26:37;;;;;;;0.60;0.40;;;15.80;99.80;;;;;;4912160;29;21008;-88
2021/06/30 03:29:10;;;;;;;0.60;0.40;;;15.80;99.80;;;;;;4916133;29;20506;-88
2021/06/30 03:31:44;;;;;;;0.60;0.40;;;;;;;;;;4904979;29;20498;-88
2021/06/30 03:34:11;;;;;;;0.60;0.40;;;15.90;99.80;;;;;;4910364;29;20558;-88
2021/06/30 03:36:45;;;;;;;0.60;0.50;;;;;;;;;;4906947;29;21147;-88
2021/06/30 03:39:13;;;;;;;0.60;0.50;;;15.90;99.80;;;;;;4903213;29;20491;-88
2021/06/30 03:41:42;;;;;;;0.60;0.40;;;15.90;99.80;;;;;;4901666;29;20542;-88
2021/06/30 03:44:15;;;;;;;0.60;0.40;;;15.90;99.80;;;;;;4910346;29;20464;-88
2021/06/30 03:46:49;;;;;;;0.60;0.40;;;16.00;99.80;;;;;;4907292;29;21002;-87
2021/06/30 03:49:22;;;;;;;0.60;0.40;;;15.90;99.80;;;;;;4914029;29;20502;-87
2021/06/30 03:51:50;;;;;;;0.60;0.50;;;16.00;99.80;;;;;;4913471;29;20468;-87
2021/06/30 03:54:24;;;;;;;0.60;0.50;;;16.00;99.80;;;;;;4913954;29;20503;-87
2021/06/30 03:56:59;;;;;;;0.60;0.40;;;16.00;99.80;;;;;;4906576;29;20562;-87
2021/06/30 03:59:32;;;;;;;0.60;0.40;;;;;;;;;;4906873;29;20568;-88
2021/06/30 04:02:00;;;;;;;0.60;0.40;;;16.00;99.80;;;;;;4920218;29;20573;-87
2021/06/30 04:04:33;;;;;;;0.60;0.50;;;16.00;99.80;;;;;;4911959;29;21014;-88
2021/06/30 04:07:05;;;;;;;0.60;0.40;;;16.00;99.80;;;;;;4912686;29;20561;-85
2021/06/30 04:09:38;;;;;;;0.60;0.43;;;16.00;99.80;;;;;;4920696;29;20471;-86
2021/06/30 04:12:08;;;;;;;0.60;0.40;;;16.00;99.80;;;;;;4930709;28;21005;-85
2021/06/30 04:14:41;;;;;;;0.60;0.50;;;16.10;99.80;;;;;;4929800;29;20552;-85
2021/06/30 04:17:09;;;;;;;0.60;0.40;;;16.20;99.80;;;;;;4932108;28;20561;-85
2021/06/30 04:19:42;;;;;;;0.60;0.50;;;16.20;99.80;;;;;;4932465;29;20554;-86
2021/06/30 04:22:10;;;;;;;0.60;0.40;;;16.30;99.80;;;;;;4923949;29;20482;-85
2021/06/30 04:24:46;;;;;;;0.60;0.40;;;16.20;99.80;;;;;;4930584;29;20503;-85
2021/06/30 04:27:15;;;;;;;0.60;0.40;;;16.20;99.80;;;;;;4922690;28;20933;-85
2021/06/30 04:29:43;;;;;;;0.60;0.40;;;16.20;99.80;;;;;;4931440;29;20482;-85
2021/06/30 04:32:16;;;;;;;0.60;0.40;;;16.20;99.80;;;;;;4927601;29;20573;-85
2021/06/30 04:34:49;;;;;;;0.60;0.40;;;16.10;99.80;;;;;;4928655;29;20476;-85
2021/06/30 04:37:17;;;;;;;0.60;0.40;;;16.10;99.80;;;;;;4930905;29;20491;-85
2021/06/30 04:39:50;;;;;;;0.60;0.40;;;16.20;99.80;;;;;;4928906;29;20553;-84
2021/06/30 04:42:20;;;;;;;0.60;0.40;;;16.20;99.80;;;;;;4906583;29;20893;-84
2021/06/30 04:44:53;;;;;;;0.60;0.50;;;16.20;99.80;;;;;;4906058;29;20482;-83
2021/06/30 04:47:26;;;;;;;0.60;0.40;;;16.20;99.80;;;;;;4908835;29;20482;-83
2021/06/30 04:49:53;;;;;;;0.60;0.50;;;16.20;99.80;;;;;;4915950;29;20514;-83
2021/06/30 04:52:26;;;;;;;0.60;0.43;;;16.30;99.80;;;;;;4923467;29;20505;-85
2021/06/30 04:54:59;;;;;;;0.60;0.40;;;16.30;99.80;;;;;;4923511;28;20486;-86
2021/06/30 04:57:28;;;;;;;0.60;0.40;;;16.40;99.80;;;;;;4929264;29;20569;-85
2021/06/30 05:00:01;;;;;;;0.60;0.40;;;16.50;99.80;;;;;;4916600;29;20939;-86
2021/06/30 05:02:34;;;;;;;0.60;0.40;;;16.50;99.80;;;;;;4940017;29;20555;-85
2021/06/30 05:05:03;;;;;;;0.60;0.40;;;16.60;99.80;;;;;;4932011;29;20487;-84
2021/06/30 05:07:31;;;;;;;0.60;0.40;;;16.70;99.80;;;;;;4932815;29;20479;-85
2021/06/30 05:10:05;;;;;;;0.60;0.50;;;16.60;99.80;;;;;;4916609;29;20926;-87
2021/06/30 05:12:39;;;;;;;0.60;0.40;;;16.60;99.80;;;;;;4918049;28;20480;-86
2021/06/30 05:15:13;;;;;;;0.60;0.40;;;16.50;99.80;;;;;;4923503;29;20491;-87
2021/06/30 05:17:46;;;;;;;0.60;0.40;;;16.40;99.80;;;;;;4924908;29;20907;-87
2021/06/30 05:20:19;;;;;;;0.60;0.40;;;16.40;99.80;;;;;;4924349;29;20549;-87
2021/06/30 05:22:52;;;;;;;0.60;0.40;;;16.50;99.80;;;;;;4919006;29;21498;-87
2021/06/30 05:25:25;;;;;;;0.60;0.40;;;16.50;99.80;;;;;;4923947;28;20550;-87
2021/06/30 05:27:59;;;;;;;0.60;0.40;;;16.50;99.80;;;;;;4914948;29;20467;-87
2021/06/30 05:30:32;;;;;;;0.60;0.40;;;16.70;99.80;;;;;;4907568;29;20890;-87
2021/06/30 05:33:05;;;;;;;0.60;0.40;;;16.80;99.80;;;;;;4919904;29;20483;-86
2021/06/30 05:35:37;;;;;;;0.60;0.50;;;16.90;99.80;;;;;;4924304;29;20575;-86
2021/06/30 05:38:10;;;;;;;0.60;0.50;;;16.90;99.80;;;;;;4928384;29;20632;-86
2021/06/30 05:40:43;;;;;;;0.60;0.50;;;17.00;99.80;;;;;;4924105;29;20577;-86
2021/06/30 05:43:18;;;;;;;0.60;0.47;;;16.90;99.80;;;;;;4919003;29;20566;-86
2021/06/30 05:45:47;;;;;;;0.60;0.50;;;16.80;99.80;;;;;;4917165;29;23437;-86
2021/06/30 05:48:20;;;;;;;0.60;0.40;;;16.70;99.80;;;;;;4924302;28;20586;-86
2021/06/30 05:50:53;;;;;;;0.60;0.40;;;16.60;99.80;;;;;;4928260;28;20514;-87
2021/06/30 05:53:22;;;;;;;0.60;0.50;;;16.70;99.80;;;;;;4912512;29;20521;-85
2021/06/30 05:55:55;;;;;;;0.60;0.50;;;16.70;99.80;;;;;;4920302;29;20577;-86
2021/06/30 05:58:24;;;;;;;0.60;0.40;;;16.80;99.80;;;;;;4923363;29;21208;-84
2021/06/30 06:00:52;;;;;;;0.60;0.40;;;17.00;99.80;;;;;;4902004;29;20586;-84
2021/06/30 06:03:25;;;;;;;0.60;0.40;;;17.00;99.80;;;;;;4927798;29;20517;-85
2021/06/30 06:05:53;;;;;;;0.60;0.50;;;17.00;99.80;;;;;;4925806;29;20474;-85
2021/06/30 06:08:26;;;;;;;0.60;0.40;;;16.90;99.80;;;;;;4917511;29;20480;-86
2021/06/30 06:10:54;;;;;;;2.30;2.10;;;16.90;99.80;;;;;;4923721;29;20934;-86
2021/06/30 06:13:28;;;;;;;0.60;0.40;;;16.90;99.80;;;;;;4917712;29;20467;-86
2021/06/30 06:16:01;;;;;;;0.60;0.40;;;16.90;99.80;;;;;;4923799;29;20505;-85
2021/06/30 06:18:29;;;;;;;0.60;0.40;;;17.00;99.80;;;;;;4926287;29;22299;-83
2021/06/30 06:21:02;;;;;;;0.60;0.40;;;17.00;99.80;;;;;;4920580;29;20469;-83
2021/06/30 06:23:36;;;;;;;0.60;0.40;;;17.10;99.80;;;;;;4922168;29;20535;-83
2021/06/30 06:26:04;;;;;;;0.60;0.50;;;17.10;99.80;;;;;;4924012;28;20938;-82
2021/06/30 06:28:38;;;;;;;0.60;0.50;;;17.20;99.80;;;;;;4919420;29;20592;-83
2021/06/30 06:31:14;;;;;;;0.60;0.40;;;17.40;99.80;;;;;;4923401;28;20913;-84
2021/06/30 06:33:42;;;;;;;0.60;0.40;;;17.50;99.80;;;;;;4925162;29;20519;-83
2021/06/30 06:36:11;;;;;;;0.60;0.40;;;17.60;99.80;;;;;;4913631;29;20515;-84
2021/06/30 06:38:45;;;;;;;0.60;0.40;;;17.60;99.80;;;;;;4923700;29;20472;-83
2021/06/30 06:41:18;;;;;;;0.60;0.40;;;17.60;99.80;;;;;;4922668;29;20560;-83
2021/06/30 06:43:53;;;;;;;0.60;0.40;;;17.60;99.80;;;;;;4915300;28;20510;-83
2021/06/30 06:46:25;;;;;;;0.60;0.40;;;17.60;99.80;;;;;;4931470;29;20517;-83
2021/06/30 06:48:53;;;;;;;0.60;0.40;;;17.60;99.80;;;;;;4933256;29;20468;-83
2021/06/30 06:51:26;;;;;;;0.60;0.50;;;17.60;99.80;;;;;;4931097;29;21148;-83
2021/06/30 06:53:59;;;;;;;0.60;0.40;;;17.70;99.80;;;;;;4932238;29;21081;-83
2021/06/30 06:56:33;;;;;;;0.60;0.40;;;17.80;99.80;;;;;;4916116;29;20558;-83
2021/06/30 06:59:09;;;;;;;0.60;0.40;;;18.00;99.80;;;;;;4929983;29;20582;-84
2021/06/30 07:01:42;;;;;;;0.60;0.40;;;18.20;99.80;;;;;;4911178;29;20507;-84
2021/06/30 07:04:15;;;;;;;0.60;0.40;;;18.30;99.80;;;;;;4915350;29;20477;-83
2021/06/30 07:06:48;;;;;;;0.60;0.40;;;18.40;99.80;;;;;;4927357;29;20472;-84
2021/06/30 07:09:21;;;;;;;0.60;0.40;;;18.40;99.80;;;;;;4921581;29;20538;-83
2021/06/30 07:11:49;;;;;;;0.60;0.40;;;18.40;99.80;;;;;;4925315;29;20504;-82
2021/06/30 07:14:23;;;;;;;0.60;0.40;;;18.50;99.80;;;;;;4911311;29;21045;-83
2021/06/30 07:16:51;;;;;;;0.60;0.40;;;18.40;99.80;;;;;;4920906;29;20485;-83
2021/06/30 07:19:19;;;;;;;0.60;0.40;;;18.30;99.80;;;;;;4922805;29;20917;-84
2021/06/30 07:21:52;;;;;;;0.60;0.40;;;18.40;99.80;;;;;;4934980;29;20515;-83
2021/06/30 07:24:25;;;;;;;0.60;0.50;;;18.50;99.80;;;;;;4929193;29;20566;-83
2021/06/30 07:26:58;;;;;;;0.60;0.40;;;18.70;99.80;;;;;;4920247;28;20562;-82
2021/06/30 07:29:32;;;;;;;0.60;0.40;;;19.00;99.80;;;;;;4915788;29;20552;-83
2021/06/30 07:32:00;;;;;;;0.60;0.40;;;19.20;99.80;;;;;;4925751;29;20484;-83
2021/06/30 07:34:33;;;;;;;0.60;0.40;;;19.00;99.80;;;;;;4934895;28;20557;-83
2021/06/30 07:37:06;;;;;;;0.60;0.40;;;19.00;99.80;;;;;;4924809;28;20486;-86
2021/06/30 07:39:34;;;;;;;0.60;0.40;;;19.00;99.80;;;;;;4904591;29;20913;-86
2021/06/30 07:42:03;;;;;;;0.60;0.40;;;19.10;99.80;;;;;;4922074;29;20550;-86
2021/06/30 07:44:37;;;;;;;0.60;0.43;;;19.10;99.80;;;;;;4915320;29;20497;-85
2021/06/30 07:47:06;;;;;;;0.60;0.40;;;19.30;99.80;;;;;;4925055;28;20487;-85
2021/06/30 07:49:34;;;;;;;0.60;0.40;;;19.50;99.80;;;;;;4925677;29;20481;-86
2021/06/30 07:52:03;;;;;;;0.60;0.40;;;19.70;99.80;;;;;;4922359;29;20479;-85
2021/06/30 07:54:33;;;;;;;0.60;0.40;;;19.60;99.80;;;;;;4921862;29;20482;-86
2021/06/30 07:57:01;;;;;;;0.60;0.40;;;19.60;99.80;;;;;;4918239;29;21264;-86
2021/06/30 07:59:29;;;;;;;0.60;0.40;;;19.50;99.80;;;;;;4912200;29;20479;-86
2021/06/30 08:01:59;;;;;;;0.60;0.40;;;19.60;99.80;;;;;;4928772;29;20475;-86
2021/06/30 08:04:27;;;;;;;0.60;0.40;;;19.40;99.80;;;;;;4934646;29;20463;-85
2021/06/30 08:06:54;;;;;;;0.60;0.40;;;19.50;99.80;;;;;;4916630;29;20475;-85
2021/06/30 08:09:22;;;;;;;0.60;0.40;;;19.50;99.80;;;;;;4922291;29;20476;-86
2021/06/30 08:12:01;;;;;;;0.60;0.40;;;19.60;99.80;;;;;;4919437;29;20857;-86
2021/06/30 08:14:29;;;;;;;0.60;0.40;;;19.70;99.80;;;;;;4919346;29;20476;-86
2021/06/30 08:17:03;;;;;;;0.60;0.40;;;19.50;99.80;;;;;;4923655;29;20468;-86
2021/06/30 08:19:31;;;;;;;0.60;0.40;;;19.30;99.80;;;;;;4916235;29;20484;-81
2021/06/30 08:22:00;;;;;;;3.43;1.47;;;19.00;99.80;;;;;;4917458;29;21440;-82
2021/06/30 08:24:28;;;;;;;2.87;2.67;;;18.90;99.80;;;;;;4924072;29;20524;-81
2021/06/30 08:26:56;;;;;;;3.60;3.20;;;18.80;99.80;;;;;;4919164;29;20868;-81
2021/06/30 08:29:25;;;;;;;2.60;2.40;;;18.80;99.80;;;;;;4912438;29;20488;-80
2021/06/30 08:31:56;;;;;;;7.60;4.37;;;19.00;99.80;;;;;;4922241;29;20487;-80
2021/06/30 08:34:27;;;;;;;4.37;2.67;;;19.30;99.80;;;;;;4932518;29;20531;-81
2021/06/30 08:36:59;;;;;;;2.60;2.40;;;19.40;99.80;;;;;;4924251;29;20488;-80
2021/06/30 08:39:29;;;;;;;2.10;2.00;;;19.60;99.80;;;;;;4919616;29;21065;-82
2021/06/30 08:41:57;;;;;;;4.03;2.63;;;19.60;99.80;;;;;;4917085;29;20481;-82
2021/06/30 08:44:26;;;;;;;2.97;2.30;;;19.70;99.80;;;;;;4923919;29;20587;-86
2021/06/30 08:46:56;;;;;;;2.20;2.00;;;19.70;99.80;;;;;;4918241;28;21243;-85
2021/06/30 08:49:27;;;;;;;2.33;2.23;;;19.60;99.80;;;;;;4924263;29;20481;-86
2021/06/30 08:51:56;;;;;;;3.67;2.80;;;19.60;99.80;;;;;;4926563;29;20486;-86
2021/06/30 08:54:25;;;;;;;3.20;1.93;;;19.80;99.80;;;;;;4924815;29;20519;-86
2021/06/30 08:56:53;;;;;;;3.93;2.67;;;19.90;99.80;;;;;;4908106;29;20495;-87
2021/06/30 08:59:23;;;;;;;5.77;2.30;;;20.00;99.80;;;;;;4902956;29;21015;-85
2021/06/30 09:01:51;;;;;;;7.63;2.90;;;20.00;99.80;;;;;;4904100;29;20864;-86
2021/06/30 09:04:19;;;;;;;4.27;2.60;;;20.10;99.80;;;;;;4929679;29;20477;-86
2021/06/30 09:06:48;;;;;;;2.47;2.27;;;20.20;99.80;;;;;;4930531;29;20499;-85
2021/06/30 09:09:16;;;;;;;2.60;2.40;;;20.10;99.80;;;;;;4925389;29;20553;-85
2021/06/30 09:11:53;;;;;;;1.90;1.80;;;20.20;99.80;;;;;;4919985;29;21098;-84
2021/06/30 09:14:24;;;;;;;2.33;2.17;;;20.30;99.80;;;;;;4915556;29;20503;-85
2021/06/30 09:17:02;;;;;;;2.87;2.40;;;20.30;99.80;;;;;;4921670;29;20846;-85
2021/06/30 09:19:50;;;;;;;2.30;2.10;;;20.40;99.80;;;;;;4925165;29;22225;-85
2021/06/30 09:22:23;;;;;;;2.80;2.30;;;20.50;99.80;;;;;;4921420;28;20560;-85
2021/06/30 09:24:52;;;;;;;2.33;2.23;;;20.50;99.80;;;;;;4921498;29;21161;-85
2021/06/30 09:27:41;;;;;;;5.33;2.67;;;20.40;99.80;;;;;;4918995;29;21995;-84
2021/06/30 09:30:12;;;;;;;2.70;2.50;;;20.50;99.80;;;;;;4925115;28;20486;-85
2021/06/30 09:32:57;;;;;;;4.23;2.67;;;20.50;99.80;;;;;;4921151;28;20564;-86
2021/06/30 09:35:29;;;;;;;3.13;2.83;;;20.30;99.80;;;;;;4924581;29;20496;-85
2021/06/30 09:38:30;;;;;;;2.63;2.47;;;20.20;99.80;;;;;;4921936;29;20483;-85
2021/06/30 09:40:59;;;;;;;3.30;2.80;;;20.20;99.80;;;;;;4922143;28;20489;-85
2021/06/30 09:43:30;;;;;;;4.60;4.07;;;20.30;99.80;;;;;;4913468;29;20901;-85
2021/06/30 09:46:16;;;;;;;4.00;3.70;;;20.10;99.80;;;;;;4925109;28;20576;-85
2021/06/30 09:48:44;;;;;;;11.23;4.53;;;20.10;99.80;;;;;;4924702;29;20477;-85
2021/06/30 09:51:18;;;;;;;5.33;4.07;;;20.10;99.80;;;;;;4930035;29;20507;-85
2021/06/30 09:53:48;;;;;;;4.60;4.20;;;20.20;99.80;;;;;;4925796;29;20473;-85
2021/06/30 09:59:18;;;;;;;5.00;4.43;;;20.40;99.80;;;;;;4919604;29;20488;-85
2021/06/30 10:01:53;;;;;;;4.20;3.80;;;20.40;99.80;;;;;;4922412;29;21006;-85
2021/06/30 10:04:24;;;;;;;6.13;3.43;;;20.30;99.80;;;;;;4914071;29;20464;-85
2021/06/30 10:06:56;;;;;;;3.43;3.20;;;20.20;99.80;;;;;;4921848;29;20472;-85
2021/06/30 10:09:25;;;;;;;8.53;3.47;;;20.20;99.80;;;;;;4919594;29;20471;-85
2021/06/30 10:11:58;;;;;;;5.27;3.70;;;20.40;99.80;;;;;;4918776;29;20477;-85
2021/06/30 10:14:27;;;;;;;3.43;3.13;;;20.50;99.80;;;;;;4923587;28;20484;-84
2021/06/30 10:16:56;;;;;;;3.57;3.27;;;21.00;99.80;;;;;;4925375;28;20472;-84
2021/06/30 10:19:24;;;;;;;2.27;2.17;;;21.10;99.80;;;;;;4925609;29;20465;-84
2021/06/30 10:21:53;;;;;;;2.50;2.30;;;21.00;98.80;;;;;;4925661;29;20476;-83
2021/06/30 10:24:22;;;;;;;3.00;2.33;;;20.90;99.00;;;;;;4909721;29;20527;-83
2021/06/30 10:26:54;;;;;;;3.90;2.17;;;20.90;99.10;;;;;;4913057;29;20487;-84
2021/06/30 10:29:25;;;;;;;2.90;2.30;;;21.10;98.70;;;;;;4919106;28;21001;-83
2021/06/30 10:31:57;;;;;;;4.50;2.13;;;21.10;98.20;;;;;;4913621;28;20559;-84
2021/06/30 10:34:36;;;;;;;2.33;2.13;;;21.10;98.60;;;;;;4929344;29;20485;-84
2021/06/30 10:37:16;;;;;;;2.17;1.83;;;21.10;96.80;;;;;;4920218;29;20477;-84
2021/06/30 10:39:47;;;;;;;2.00;1.90;;;21.20;96.80;;;;;;4917006;29;20473;-85
2021/06/30 10:42:29;;;;;;;1.87;1.77;;;21.40;99.40;;;;;;4909753;29;20491;-85
2021/06/30 10:44:59;;;;;;;2.50;2.07;;;21.70;97.20;;;;;;4915286;29;20503;-85
2021/06/30 10:47:33;;;;;;;2.40;2.20;;;21.90;94.80;;;;;;4920935;29;20586;-84
2021/06/30 10:50:27;;;;;;;2.00;1.90;;;22.00;94.30;;;;;;4924510;29;20902;-85
2021/06/30 10:53:23;;;;;;;2.03;1.60;;;21.90;93.50;;;;;;4920265;29;20487;-87
2021/06/30 10:55:52;;;;;;;2.20;2.00;;;21.60;94.80;;;;;;4916001;29;20563;-85
2021/06/30 10:58:24;;;;;;;2.60;1.93;;;21.70;96.30;;;;;;4917516;29;20564;-85
2021/06/30 11:01:05;;;;;;;1.60;1.50;;;22.10;93.70;;;;;;4886318;29;20477;-84
2021/06/30 11:03:35;;;;;;;1.53;1.43;;;22.50;91.90;;;;;;4929508;28;21003;-84
2021/06/30 11:06:25;;;;;;;1.50;1.40;;;22.60;94.30;;;;;;4916700;29;20481;-85
2021/06/30 11:08:54;;;;;;;1.97;1.87;;;22.60;92.00;;;;;;4918474;29;20484;-85
2021/06/30 11:11:49;;;;;;;2.40;2.00;;;22.60;91.30;;;;;;4917415;29;20467;-82
2021/06/30 11:14:19;;;;;;;1.80;1.70;;;22.40;92.60;;;;;;4909476;29;20491;-83
2021/06/30 11:16:49;;;;;;;3.00;1.80;;;22.20;91.70;;;;;;4921632;29;20478;-83
2021/06/30 11:19:46;;;;;;;4.27;1.80;;;21.80;94.50;;;;;;4929843;29;20477;-83
2021/06/30 11:22:27;;;;;;;6.40;2.00;;;21.80;93.20;;;;;;4927338;29;20519;-84
2021/06/30 11:24:57;;;;;;;2.60;1.83;;;21.60;92.90;;;;;;4926348;28;21283;-83
2021/06/30 11:27:46;;;;;;;2.10;1.43;;;21.50;93.70;;;;;;4915449;28;20499;-84
2021/06/30 11:30:37;;;;;;;1.73;1.63;;;21.50;94.00;;;;;;4919303;29;20474;-83
2021/06/30 11:33:16;;;;;;;1.70;1.60;;;21.50;94.90;;;;;;4928543;29;20485;-83
2021/06/30 11:35:46;;;;;;;2.03;1.93;;;21.70;94.20;;;;;;4928506;28;20465;-84
2021/06/30 11:38:19;;;;;;;2.00;1.80;;;22.00;92.10;;;;;;4919594;28;20480;-84
2021/06/30 11:41:07;;;;;;;1.50;1.40;;;22.30;92.20;;;;;;4918860;28;20466;-83
2021/06/30 11:43:39;;;;;;;1.70;1.60;;;22.60;91.80;;;;;;4915745;29;20495;-83
2021/06/30 11:46:08;;;;;;;1.70;1.60;;;22.80;89.90;;;;;;4916039;29;20572;-84
2021/06/30 11:48:38;;;;;;;2.73;1.93;;;22.90;90.00;;;;;;4894746;29;20480;-86
2021/06/30 11:51:09;;;;;;;2.03;1.90;;;22.90;90.10;;;;;;4908858;29;20488;-85
2021/06/30 11:53:44;;;;;;;1.43;1.33;;;22.90;89.60;;;;;;4908906;29;20483;-84
2021/06/30 11:56:15;;;;;;;2.10;1.90;;;22.80;90.10;;;;;;4907880;29;20472;-85
2021/06/30 11:58:51;;;;;;;2.30;2.20;;;22.70;89.60;;;;;;4906633;29;20485;-85
2021/06/30 12:01:21;;;;;;;1.70;1.60;;;22.60;87.70;;;;;;4910015;28;20500;-84
2021/06/30 12:04:07;;;;;;;1.50;1.40;;;22.50;88.60;;;;;;4924200;29;25208;-85
2021/06/30 12:06:35;;;;;;;2.00;1.90;;;22.70;88.80;;;;;;4930580;29;20481;-85
2021/06/30 12:09:22;;;;;;;1.90;1.70;;;23.10;89.60;;;;;;4919232;29;20965;-85
2021/06/30 12:11:53;;;;;;;2.03;1.93;;;23.70;87.80;;;;;;4916760;29;20480;-83
2021/06/30 12:14:23;;;;;;;2.10;1.90;;;24.50;84.10;;;;;;4913042;29;20476;-82
2021/06/30 12:16:57;;;;;;;1.93;1.83;;;25.20;82.00;;;;;;4920782;29;20991;-83
2021/06/30 12:19:40;;;;;;;2.37;2.27;;;26.20;82.60;;;;;;4925274;29;20484;-83
2021/06/30 12:22:22;;;;;;;2.33;2.13;;;26.80;77.90;;;;;;4916364;29;20602;-83
2021/06/30 12:24:59;;;;;;;3.17;2.00;;;27.50;78.10;;;;;;4911811;29;20550;-83
2021/06/30 12:27:29;;;;;;;1.57;1.47;;;28.30;75.90;;;;;;4906716;29;20478;-84
2021/06/30 12:30:00;;;;;;;1.80;1.70;;;;;;;;;;4920436;29;20480;-82
2021/06/30 12:32:29;;;;;;;1.80;1.70;;;30.30;70.30;;;;;;4921917;28;20580;-84
2021/06/30 12:35:01;;;;;;;1.80;1.70;;;30.60;67.70;;;;;;4929314;29;20476;-84
2021/06/30 12:37:31;;;;;;;1.50;1.40;;;30.00;70.60;;;;;;4929888;29;20469;-83
2021/06/30 12:40:00;;;;;;;1.83;1.70;;;30.60;67.90;;;;;;4915811;29;20476;-85
2021/06/30 12:42:51;;;;;;;1.87;1.40;;;31.30;66.30;;;;;;4923947;29;20487;-83
2021/06/30 12:45:20;;;;;;;1.63;1.53;;;31.60;63.70;;;;;;4905613;29;20473;-85
2021/06/30 12:47:57;;;;;;;1.53;1.43;;;31.40;66.50;;;;;;4924737;29;20491;-85
2021/06/30 12:50:32;;;;;;;1.60;1.40;;;30.70;65.60;;;;;;4904857;29;20508;-82
2021/06/30 12:53:02;;;;;;;1.53;1.43;;;29.30;69.30;;;;;;4919781;29;20484;-83
2021/06/30 12:55:31;;;;;;;2.07;1.97;;;;;;;;;;4921612;29;20916;-82
2021/06/30 12:58:02;;;;;;;1.67;1.57;;;27.90;72.00;;;;;;4924238;29;20473;-85
2021/06/30 13:00:32;;;;;;;1.93;1.83;;;27.30;76.00;;;;;;4926048;28;20480;-84
2021/06/30 13:03:11;;;;;;;1.60;1.40;;;27.20;73.50;;;;;;4934588;29;20477;-84
2021/06/30 13:05:43;;;;;;;1.57;1.47;;;26.60;75.70;;;;;;4933229;29;20919;-84
2021/06/30 13:08:31;;;;;;;1.50;1.40;;;26.00;78.50;;;;;;4927958;29;20489;-84
2021/06/30 13:11:04;;;;;;;1.53;1.43;;;25.10;80.20;;;;;;4927831;29;21008;-83
2021/06/30 13:13:32;;;;;;;2.40;1.37;;;24.70;81.30;;;;;;4911702;29;20488;-84
2021/06/30 13:16:11;;;;;;;3.13;1.67;;;24.30;83.50;;;;;;4906179;29;20907;-84
2021/06/30 13:18:44;;;;;;;1.50;1.40;;;23.70;84.30;;;;;;4923383;29;20475;-84